nws-alerts: Checking more than four warning/county codes can delay the loading of your pages. You should use a cron job to get the data.
EllijayWeather Station Historical Data
Daily Summary for July 11, 2019 Units:  English    Metric   Both
Daily Weekly Monthly Yearly Custom
  High: Low: Average:
Temperature: 86.5 °F 69.8 °F 76.5 °F
Dew Point: 77 °F 68.9 °F 72.4 °F
Humidity: 99% 66% 88%
Wind Speed: 2mph 0mph 0mph
Wind Gust: 6mph - -
Wind- - ESE
Pressure: 29.98 in 29.85 in -
Precipitation: 0.8 in    
Historical Graphs
 
 
Tabular Data for July 11, 2019
Time Temperature Dew Point Pressure Wind Wind Speed Wind Gust Humidity Rainfall Rate (Hourly) solar
00:04 75.4 °F 73.2 °F 29.98 in Calm     93% 0 in meteobridge W/m2
00:09 75.4 °F 73.2 °F 29.98 in Calm     93% 0 in meteobridge W/m2
00:14 75.4 °F 73.2 °F 29.98 in Calm     93% 0 in meteobridge W/m2
00:19 75.2 °F 73 °F 29.98 in Calm     93% 0 in meteobridge W/m2
00:24 75.2 °F 73 °F 29.98 in Calm     93% 0 in meteobridge W/m2
00:29 75 °F 72.9 °F 29.98 in Calm     93% 0 in meteobridge W/m2
00:34 75 °F 72.9 °F 29.97 in Calm     93% 0 in meteobridge W/m2
00:39 74.8 °F 72.7 °F 29.97 in Calm     93% 0 in meteobridge W/m2
00:44 74.8 °F 72.7 °F 29.97 in Calm     93% 0 in meteobridge W/m2
00:49 74.8 °F 72.7 °F 29.97 in Calm     93% 0 in meteobridge W/m2
00:54 74.8 °F 72.7 °F 29.97 in Calm     93% 0 in meteobridge W/m2
00:59 74.7 °F 72.9 °F 29.98 in Calm     94% 0 in meteobridge W/m2
01:04 74.7 °F 72.9 °F 29.98 in Calm     94% 0 in meteobridge W/m2
01:09 74.7 °F 72.9 °F 29.98 in Calm     94% 0 in meteobridge W/m2
01:14 74.7 °F 72.9 °F 29.98 in Calm     94% 0 in meteobridge W/m2
01:19 74.5 °F 72.7 °F 29.98 in Calm     94% 0 in meteobridge W/m2
01:24 74.5 °F 72.7 °F 29.98 in Calm     94% 0 in meteobridge W/m2
01:29 74.5 °F 72.7 °F 29.97 in Calm     94% 0 in meteobridge W/m2
01:34 74.5 °F 72.7 °F 29.97 in Calm     94% 0 in meteobridge W/m2
01:39 74.5 °F 72.7 °F 29.97 in Calm     94% 0 in meteobridge W/m2
01:44 74.5 °F 72.7 °F 29.97 in Calm     94% 0 in meteobridge W/m2
01:49 74.5 °F 72.7 °F 29.97 in Calm     94% 0 in meteobridge W/m2
01:54 74.3 °F 72.5 °F 29.97 in Calm     94% 0 in meteobridge W/m2
01:59 74.3 °F 72.5 °F 29.97 in Calm     94% 0 in meteobridge W/m2
02:04 74.1 °F 72.3 °F 29.97 in Calm     94% 0 in meteobridge W/m2
02:09 74.1 °F 72.3 °F 29.97 in Calm     94% 0 in meteobridge W/m2
02:14 74.1 °F 72.3 °F 29.97 in Calm     94% 0 in meteobridge W/m2
02:19 73.9 °F 72.1 °F 29.97 in Calm     94% 0 in meteobridge W/m2
02:24 73.9 °F 72.1 °F 29.97 in Calm     94% 0 in meteobridge W/m2
02:29 73.9 °F 72.1 °F 29.97 in Calm     94% 0 in meteobridge W/m2
02:34 73.8 °F 72 °F 29.96 in Calm     94% 0 in meteobridge W/m2
02:39 73.8 °F 72.3 °F 29.96 in Calm     95% 0 in meteobridge W/m2
02:44 73.6 °F 72.1 °F 29.96 in Calm     95% 0 in meteobridge W/m2
02:49 73.2 °F 71.8 °F 29.96 in Calm     95% 0 in meteobridge W/m2
02:54 73.2 °F 71.8 °F 29.96 in Calm     95% 0 in meteobridge W/m2
02:59 73.2 °F 71.8 °F 29.96 in Calm     95% 0 in meteobridge W/m2
03:04 73 °F 71.6 °F 29.96 in Calm     95% 0 in meteobridge W/m2
03:09 73 °F 71.6 °F 29.95 in Calm     95% 0 in meteobridge W/m2
03:14 72.9 °F 71.4 °F 29.95 in Calm     95% 0 in meteobridge W/m2
03:19 72.9 °F 71.4 °F 29.95 in Calm     95% 0 in meteobridge W/m2
03:24 72.9 °F 71.6 °F 29.95 in Calm     96% 0 in meteobridge W/m2
03:29 72.9 °F 71.6 °F 29.95 in Calm     96% 0 in meteobridge W/m2
03:34 72.7 °F 71.4 °F 29.95 in Calm     96% 0 in meteobridge W/m2
03:39 72.7 °F 71.4 °F 29.95 in Calm     96% 0 in meteobridge W/m2
03:44 72.7 °F 71.4 °F 29.95 in Calm     96% 0 in meteobridge W/m2
03:49 72.7 °F 71.4 °F 29.95 in Calm     96% 0 in meteobridge W/m2
03:54 72.7 °F 71.4 °F 29.94 in Calm     96% 0 in meteobridge W/m2
03:59 72.5 °F 71.2 °F 29.94 in Calm     96% 0 in meteobridge W/m2
04:04 72.3 °F 71.1 °F 29.94 in Calm     96% 0 in meteobridge W/m2
04:09 72.3 °F 71.1 °F 29.94 in Calm     96% 0 in meteobridge W/m2
04:14 72.3 °F 71.1 °F 29.94 in Calm     96% 0 in meteobridge W/m2
04:19 72.1 °F 70.9 °F 29.94 in Calm     96% 0 in meteobridge W/m2
04:24 72.1 °F 70.9 °F 29.94 in Calm     96% 0 in meteobridge W/m2
04:29 72.1 °F 70.9 °F 29.95 in Calm     96% 0 in meteobridge W/m2
04:34 72.1 °F 70.9 °F 29.95 in Calm     96% 0 in meteobridge W/m2
04:39 72.1 °F 70.9 °F 29.94 in Calm     96% 0 in meteobridge W/m2
04:44 72 °F 70.7 °F 29.94 in Calm     96% 0 in meteobridge W/m2
04:49 72 °F 70.7 °F 29.93 in Calm     96% 0 in meteobridge W/m2
04:54 71.8 °F 70.5 °F 29.94 in Calm     96% 0 in meteobridge W/m2
04:59 72 °F 70.7 °F 29.94 in Calm     96% 0 in meteobridge W/m2
05:04 72 °F 70.7 °F 29.94 in Calm     96% 0 in meteobridge W/m2
05:09 71.8 °F 70.5 °F 29.94 in Calm     96% 0 in meteobridge W/m2
05:14 71.8 °F 70.5 °F 29.94 in Calm     96% 0 in meteobridge W/m2
05:19 71.8 °F 70.5 °F 29.94 in Calm     96% 0 in meteobridge W/m2
05:24 71.6 °F 70.7 °F 29.94 in Calm     97% 0 in meteobridge W/m2
05:29 71.8 °F 70.9 °F 29.94 in Calm     97% 0 in meteobridge W/m2
05:34 71.6 °F 70.7 °F 29.94 in Calm     97% 0 in meteobridge W/m2
05:39 71.6 °F 70.7 °F 29.94 in Calm     97% 0 in meteobridge W/m2
05:44 71.4 °F 70.5 °F 29.94 in Calm     97% 0 in meteobridge W/m2
05:49 71.4 °F 70.5 °F 29.94 in Calm     97% 0 in meteobridge W/m2
05:54 71.4 °F 70.5 °F 29.95 in Calm     97% 0 in meteobridge W/m2
05:59 71.4 °F 70.5 °F 29.95 in Calm     97% 0 in meteobridge W/m2
06:04 71.4 °F 70.5 °F 29.96 in Calm     97% 0 in meteobridge W/m2
06:09 71.2 °F 70.3 °F 29.96 in Calm     97% 0 in meteobridge W/m2
06:14 71.4 °F 70.5 °F 29.96 in Calm     97% 0 in meteobridge W/m2
06:19 71.4 °F 70.5 °F 29.96 in Calm     97% 0 in meteobridge W/m2
06:24 71.4 °F 70.5 °F 29.96 in Calm     97% 0 in meteobridge W/m2
06:29 71.4 °F 70.5 °F 29.96 in Calm     97% 0 in meteobridge W/m2
06:34 71.4 °F 70.2 °F 29.96 in Calm     96% 0 in meteobridge W/m2
06:39 71.4 °F 70.2 °F 29.96 in Calm     96% 0 in meteobridge W/m2
06:44 71.2 °F 70 °F 29.96 in Calm     96% 0 in meteobridge W/m2
06:49 71.2 °F 70 °F 29.96 in Calm     96% 0 in meteobridge W/m2
06:54 71.2 °F 70.3 °F 29.96 in Calm     97% 0 in meteobridge W/m2
06:59 71.2 °F 70.3 °F 29.96 in Calm     97% 0 in meteobridge W/m2
07:04 71.2 °F 70.3 °F 29.96 in Calm     97% 0 in meteobridge W/m2
07:09 71.2 °F 70.3 °F 29.96 in Calm     97% 0 in meteobridge W/m2
07:14 71.2 °F 70.3 °F 29.97 in Calm     97% 0 in meteobridge W/m2
07:19 71.2 °F 70.3 °F 29.97 in Calm     97% 0 in meteobridge W/m2
07:24 71.2 °F 70.3 °F 29.97 in Calm     97% 0 in meteobridge W/m2
07:29 71.4 °F 70.5 °F 29.97 in Calm     97% 0 in meteobridge W/m2
07:34 71.4 °F 70.5 °F 29.97 in Calm     97% 0 in meteobridge W/m2
07:39 71.6 °F 70.7 °F 29.97 in Calm     97% 0 in meteobridge W/m2
07:44 71.8 °F 70.9 °F 29.97 in Calm     97% 0 in meteobridge W/m2
07:49 72 °F 71.1 °F 29.97 in Calm     97% 0 in meteobridge W/m2
07:54 72.1 °F 71.2 °F 29.97 in Calm     97% 0 in meteobridge W/m2
07:59 72.3 °F 71.4 °F 29.97 in Calm     97% 0 in meteobridge W/m2
08:04 72.7 °F 71.4 °F 29.97 in Calm     96% 0 in meteobridge W/m2
08:09 72.9 °F 71.6 °F 29.97 in Calm     96% 0 in meteobridge W/m2
08:14 73 °F 71.8 °F 29.97 in Calm     96% 0 in meteobridge W/m2
08:19 73.2 °F 72 °F 29.97 in Calm     96% 0 in meteobridge W/m2
08:24 73.6 °F 72.3 °F 29.97 in Calm     96% 0 in meteobridge W/m2
08:29 73.8 °F 72.5 °F 29.97 in Calm     96% 0 in meteobridge W/m2
08:34 73.9 °F 72.7 °F 29.97 in Calm     96% 0 in meteobridge W/m2
08:39 74.3 °F 73 °F 29.98 in Calm     96% 0 in meteobridge W/m2
08:44 74.5 °F 73 °F 29.97 in Calm     95% 0 in meteobridge W/m2
08:49 74.8 °F 73.2 °F 29.97 in Calm     95% 0 in meteobridge W/m2
08:54 75 °F 73.2 °F 29.97 in Calm     94% 0 in meteobridge W/m2
08:59 75.4 °F 73.2 °F 29.97 in Calm     93% 0 in meteobridge W/m2
09:04 75.7 °F 73.6 °F 29.97 in Calm     93% 0 in meteobridge W/m2
09:09 76.1 °F 73.6 °F 29.97 in Calm     92% 0 in meteobridge W/m2
09:14 76.3 °F 73.4 °F 29.98 in Calm     91% 0 in meteobridge W/m2
09:19 76.6 °F 73.4 °F 29.98 in Calm     90% 0 in meteobridge W/m2
09:24 77 °F 73.8 °F 29.98 in Calm     90% 0 in meteobridge W/m2
09:29 77.5 °F 73.8 °F 29.98 in Calm   3 mph 88% 0 in meteobridge W/m2
09:34 77.7 °F 73.9 °F 29.98 in Calm     88% 0 in meteobridge W/m2
09:39 77.9 °F 73.8 °F 29.98 in Calm     87% 0 in meteobridge W/m2
09:44 78.3 °F 73.8 °F 29.98 in Calm     86% 0 in meteobridge W/m2
09:49 78.4 °F 73.9 °F 29.98 in Calm     86% 0 in meteobridge W/m2
09:54 78.6 °F 73.8 °F 29.98 in Calm     85% 0 in meteobridge W/m2
09:59 79.2 °F 74.3 °F 29.98 in NW 0.9 mph 4 mph 85% 0 in meteobridge W/m2
10:04 79.3 °F 74.1 °F 29.97 in Calm   1 mph 84% 0 in meteobridge W/m2
10:09 79.5 °F 73.9 °F 29.97 in Calm   1 mph 83% 0 in meteobridge W/m2
10:14 79.9 °F 74.3 °F 29.97 in Calm   1 mph 83% 0 in meteobridge W/m2
10:19 79.9 °F 74.3 °F 29.97 in Calm     83% 0 in meteobridge W/m2
10:24 80.1 °F 74.5 °F 29.97 in Calm     83% 0 in meteobridge W/m2
10:29 80.4 °F 74.5 °F 29.96 in Calm   1 mph 82% 0 in meteobridge W/m2
10:34 80.8 °F 74.8 °F 29.96 in Calm     82% 0 in meteobridge W/m2
10:39 81 °F 74.7 °F 29.96 in Calm     81% 0 in meteobridge W/m2
10:44 81.1 °F 74.3 °F 29.97 in Calm   2 mph 80% 0 in meteobridge W/m2
10:49 81.7 °F 74.1 °F 29.97 in Calm     78% 0 in meteobridge W/m2
10:54 81.9 °F 74.3 °F 29.97 in Calm     78% 0 in meteobridge W/m2
10:59 81.9 °F 74.7 °F 29.97 in Calm     79% 0 in meteobridge W/m2
11:04 81.7 °F 74.8 °F 29.97 in Calm     80% 0 in meteobridge W/m2
11:09 81.3 °F 74.1 °F 29.97 in Calm   1 mph 79% 0 in meteobridge W/m2
11:14 81.3 °F 74.8 °F 29.97 in Calm     81% 0 in meteobridge W/m2
11:19 81.3 °F 74.5 °F 29.97 in Calm     80% 0 in meteobridge W/m2
11:24 81.5 °F 75 °F 29.97 in Calm     81% 0 in meteobridge W/m2
11:29 81.7 °F 75.6 °F 29.97 in Calm     82% 0 in meteobridge W/m2
11:34 82.4 °F 74.8 °F 29.96 in Calm   1 mph 78% 0 in meteobridge W/m2
11:39 82.9 °F 73.4 °F 29.96 in Calm     73% 0 in meteobridge W/m2
11:44 83.8 °F 73.8 °F 29.96 in Calm     72% 0 in meteobridge W/m2
11:49 83.8 °F 74.7 °F 29.97 in Calm     74% 0 in meteobridge W/m2
11:54 83.8 °F 74.7 °F 29.96 in Calm   2 mph 74% 0 in meteobridge W/m2
11:59 83.8 °F 75.4 °F 29.96 in Calm     76% 0 in meteobridge W/m2
12:04 83.8 °F 75.4 °F 29.96 in Calm     76% 0 in meteobridge W/m2
12:09 83.8 °F 75.4 °F 29.96 in Calm     76% 0 in meteobridge W/m2
12:14 84 °F 75.2 °F 29.96 in ENE 0.9 mph 2 mph 75% 0 in meteobridge W/m2
12:19 84 °F 73.9 °F 29.96 in ENE 0.9 mph 1 mph 72% 0 in meteobridge W/m2
12:24 84.6 °F 75.4 °F 29.96 in Calm     74% 0 in meteobridge W/m2
12:29 84.9 °F 74.8 °F 29.96 in Calm     72% 0 in meteobridge W/m2
12:34 85.5 °F 75.4 °F 29.96 in Calm     72% 0 in meteobridge W/m2
12:39 85.6 °F 75.2 °F 29.95 in Calm   1 mph 71% 0 in meteobridge W/m2
12:44 85.8 °F 75.4 °F 29.95 in NE 0.9 mph 3 mph 71% 0 in meteobridge W/m2
12:49 85.6 °F 75.2 °F 29.95 in NNE 0.9 mph 1 mph 71% 0 in meteobridge W/m2
12:54 85.5 °F 75.4 °F 29.95 in Calm     72% 0 in meteobridge W/m2
12:59 85.5 °F 75.4 °F 29.95 in Calm   2 mph 72% 0 in meteobridge W/m2
13:04 85.3 °F 74.8 °F 29.94 in Calm   1 mph 71% 0 in meteobridge W/m2
13:09 85.3 °F 74.3 °F 29.94 in Calm   1 mph 70% 0 in meteobridge W/m2
13:14 85.5 °F 75.7 °F 29.94 in Calm     73% 0 in meteobridge W/m2
13:19 85.5 °F 75 °F 29.94 in NNE 0.9 mph 5 mph 71% 0 in meteobridge W/m2
13:24 85.5 °F 75.4 °F 29.93 in Calm     72% 0 in meteobridge W/m2
13:29 85.3 °F 75.2 °F 29.93 in Calm     72% 0 in meteobridge W/m2
13:34 85.3 °F 75.2 °F 29.93 in Calm     72% 0 in meteobridge W/m2
13:39 85.1 °F 75.4 °F 29.93 in Calm     73% 0 in meteobridge W/m2
13:44 85.1 °F 74.7 °F 29.93 in Calm   1 mph 71% 0 in meteobridge W/m2
13:49 84.7 °F 74.3 °F 29.92 in Calm     71% 0 in meteobridge W/m2
13:54 84.9 °F 74.8 °F 29.92 in Calm     72% 0 in meteobridge W/m2
13:59 84.9 °F 75.2 °F 29.92 in Calm     73% 0 in meteobridge W/m2
14:04 85.3 °F 74.3 °F 29.91 in Calm   1 mph 70% 0 in meteobridge W/m2
14:09 85.5 °F 75 °F 29.91 in Calm     71% 0 in meteobridge W/m2
14:14 85.6 °F 74.7 °F 29.91 in Calm     70% 0 in meteobridge W/m2
14:19 85.8 °F 74.8 °F 29.91 in Calm     70% 0 in meteobridge W/m2
14:24 85.8 °F 75.4 °F 29.91 in Calm     71% 0 in meteobridge W/m2
14:29 86 °F 74.7 °F 29.90 in Calm     69% 0 in meteobridge W/m2
14:34 86.2 °F 74.3 °F 29.90 in Calm   1 mph 68% 0 in meteobridge W/m2
14:39 86.4 °F 75.9 °F 29.91 in Calm   1 mph 71% 0 in meteobridge W/m2
14:44 86.5 °F 74.7 °F 29.90 in Calm     68% 0 in meteobridge W/m2
14:49 86.4 °F 74.5 °F 29.90 in Calm     68% 0 in meteobridge W/m2
14:54 86.4 °F 74.5 °F 29.90 in Calm     68% 0 in meteobridge W/m2
14:59 86.4 °F 74.5 °F 29.90 in Calm   1 mph 68% 0 in meteobridge W/m2
15:04 86 °F 74.1 °F 29.90 in Calm     68% 0 in meteobridge W/m2
15:09 85.8 °F 74.5 °F 29.91 in Calm     69% 0 in meteobridge W/m2
15:14 85.6 °F 74.3 °F 29.90 in Calm     69% 0 in meteobridge W/m2
15:19 85.8 °F 74.5 °F 29.90 in Calm   1 mph 69% 0 in meteobridge W/m2
15:24 86 °F 74.7 °F 29.91 in Calm     69% 0 in meteobridge W/m2
15:29 85.8 °F 73.2 °F 29.90 in Calm     66% 0 in meteobridge W/m2
15:34 86.4 °F 74.5 °F 29.90 in NNE 0.9 mph 1 mph 68% 0 in meteobridge W/m2
15:39 86.5 °F 74.3 °F 29.89 in Calm   1 mph 67% 0 in meteobridge W/m2
15:44 86.5 °F 74.7 °F 29.89 in Calm     68% 0 in meteobridge W/m2
15:49 86.5 °F 74.7 °F 29.88 in Calm   1 mph 68% 0 in meteobridge W/m2
15:54 86.5 °F 73.8 °F 29.88 in Calm     66% 0 in meteobridge W/m2
15:59 86.5 °F 74.7 °F 29.88 in Calm     68% 0 in meteobridge W/m2
16:04 86.2 °F 74.8 °F 29.88 in Calm   2 mph 69% 0 in meteobridge W/m2
16:09 85.6 °F 74.7 °F 29.88 in Calm   1 mph 70% 0 in meteobridge W/m2
16:14 85.6 °F 74.7 °F 29.88 in Calm     70% 0 in meteobridge W/m2
16:19 85.5 °F 75.4 °F 29.88 in Calm     72% 0 in meteobridge W/m2
16:24 85.3 °F 74.8 °F 29.87 in Calm     71% 0 in meteobridge W/m2
16:29 84.9 °F 75.2 °F 29.87 in Calm     73% 0 in meteobridge W/m2
16:34 84.6 °F 75.4 °F 29.87 in Calm     74% 0 in meteobridge W/m2
16:39 84.4 °F 75.9 °F 29.86 in Calm     76% 0 in meteobridge W/m2
16:44 84.2 °F 75.7 °F 29.86 in Calm     76% 0 in meteobridge W/m2
16:49 84 °F 75.6 °F 29.86 in Calm     76% 0 in meteobridge W/m2
16:54 83.8 °F 75.9 °F 29.86 in Calm     77% 0 in meteobridge W/m2
16:59 83.7 °F 76.5 °F 29.87 in Calm     79% 0 in meteobridge W/m2
17:04 83.7 °F 76.8 °F 29.87 in Calm     80% 0 in meteobridge W/m2
17:09 83.5 °F 77 °F 29.86 in Calm     81% 0 in meteobridge W/m2
17:14 83.5 °F 77 °F 29.86 in Calm     81% 0 in meteobridge W/m2
17:19 83.5 °F 76.3 °F 29.86 in Calm     79% 0 in meteobridge W/m2
17:24 83.3 °F 75.4 °F 29.86 in Calm     77% 0 in meteobridge W/m2
17:29 83.5 °F 76.6 °F 29.86 in Calm     80% 0 in meteobridge W/m2
17:34 83.7 °F 74.8 °F 29.86 in Calm     75% 0 in meteobridge W/m2
17:39 83.7 °F 75.2 °F 29.86 in Calm     76% 0 in meteobridge W/m2
17:44 83.8 °F 76.6 °F 29.85 in Calm     79% 0 in meteobridge W/m2
17:49 83.8 °F 77 °F 29.85 in Calm     80% 0 in meteobridge W/m2
17:54 83.8 °F 77 °F 29.85 in Calm     80% 0 in meteobridge W/m2
17:59 83.7 °F 76.8 °F 29.85 in Calm     80% 0 in meteobridge W/m2
18:04 83.1 °F 75.9 °F 29.86 in North 0.9 mph 3 mph 79% 0 in meteobridge W/m2
18:09 82.2 °F 74.3 °F 29.88 in NE 0.9 mph 4 mph 77% 0.01 in meteobridge W/m2
18:14 79.7 °F 73.4 °F 29.89 in Calm   1 mph 81% 0.1 in meteobridge W/m2
18:19 77.5 °F 72.7 °F 29.88 in Calm     85% 0.16 in meteobridge W/m2
18:24 76.3 °F 72.5 °F 29.88 in Calm   1 mph 88% 0.21 in meteobridge W/m2
18:29 75.4 °F 72.9 °F 29.88 in Calm   6 mph 92% 0.26 in meteobridge W/m2
18:34 74.7 °F 72.1 °F 29.87 in Calm     92% 0.31 in meteobridge W/m2
18:39 73.9 °F 71.8 °F 29.88 in Calm     93% 0.36 in meteobridge W/m2
18:44 73.8 °F 71.6 °F 29.88 in Calm   1 mph 93% 0.39 in meteobridge W/m2
18:49 73.2 °F 71.1 °F 29.89 in WNW 0.9 mph 2 mph 93% 0.43 in meteobridge W/m2
18:54 72.7 °F 70.5 °F 29.90 in West 2 mph 5 mph 93% 0.47 in meteobridge W/m2
18:59 72.1 °F 70 °F 29.90 in Calm   6 mph 93% 0.5 in meteobridge W/m2
19:04 71.8 °F 70 °F 29.89 in Calm     94% 0.52 in meteobridge W/m2
19:09 71.4 °F 69.6 °F 29.89 in Calm   1 mph 94% 0.54 in meteobridge W/m2
19:14 71.2 °F 69.4 °F 29.89 in Calm   1 mph 94% 0.45 in meteobridge W/m2
19:19 70.9 °F 69.1 °F 29.90 in Calm     94% 0.43 in meteobridge W/m2
19:24 70.7 °F 69.3 °F 29.90 in Calm     95% 0.4 in meteobridge W/m2
19:29 70.5 °F 69.1 °F 29.90 in Calm     95% 0.37 in meteobridge W/m2
19:34 70.3 °F 68.9 °F 29.90 in Calm     95% 0.33 in meteobridge W/m2
19:39 70.2 °F 68.9 °F 29.90 in Calm     96% 0.31 in meteobridge W/m2
19:44 70.2 °F 68.9 °F 29.89 in Calm     96% 0.27 in meteobridge W/m2
19:49 70.2 °F 68.9 °F 29.89 in Calm     96% 0.26 in meteobridge W/m2
19:54 70.2 °F 69.3 °F 29.89 in Calm     97% 0.24 in meteobridge W/m2
19:59 70.2 °F 69.3 °F 29.89 in Calm     97% 0.22 in meteobridge W/m2
20:04 70.2 °F 69.3 °F 29.90 in Calm     97% 0.21 in meteobridge W/m2
20:09 70.2 °F 69.3 °F 29.90 in Calm     97% 0.19 in meteobridge W/m2
20:14 70.3 °F 69.8 °F 29.90 in Calm     98% 0.18 in meteobridge W/m2
20:19 70.5 °F 70 °F 29.90 in Calm     98% 0.17 in meteobridge W/m2
20:24 70.9 °F 70.3 °F 29.91 in Calm     98% 0.16 in meteobridge W/m2
20:29 71.1 °F 70.5 °F 29.91 in Calm     98% 0.15 in meteobridge W/m2
20:34 70.9 °F 70 °F 29.90 in Calm     97% 0.15 in meteobridge W/m2
20:39 70.9 °F 70 °F 29.91 in Calm     97% 0.14 in meteobridge W/m2
20:44 70.7 °F 69.8 °F 29.91 in Calm     97% 0.13 in meteobridge W/m2
20:49 70.7 °F 69.8 °F 29.91 in Calm     97% 0.11 in meteobridge W/m2
20:54 70.7 °F 69.8 °F 29.91 in Calm     97% 0.1 in meteobridge W/m2
20:59 70.5 °F 69.6 °F 29.91 in Calm     97% 0.08 in meteobridge W/m2
21:04 70.3 °F 69.4 °F 29.91 in Calm     97% 0.07 in meteobridge W/m2
21:09 70.3 °F 69.4 °F 29.91 in Calm     97% 0.06 in meteobridge W/m2
21:14 70.3 °F 69.4 °F 29.91 in Calm     97% 0.05 in meteobridge W/m2
21:19 70.2 °F 69.3 °F 29.91 in Calm     97% 0.04 in meteobridge W/m2
21:24 70.2 °F 69.3 °F 29.91 in Calm     97% 0.03 in meteobridge W/m2
21:29 70 °F 69.1 °F 29.91 in Calm     97% 0.02 in meteobridge W/m2
21:34 70 °F 69.1 °F 29.91 in Calm     97% 0.01 in meteobridge W/m2
21:39 70 °F 69.1 °F 29.91 in Calm     97% 0.01 in meteobridge W/m2
21:44 70 °F 69.1 °F 29.91 in Calm     97% 0 in meteobridge W/m2
21:49 69.8 °F 68.9 °F 29.91 in Calm     97% 0 in meteobridge W/m2
21:54 69.8 °F 68.9 °F 29.91 in Calm     97% 0 in meteobridge W/m2
21:59 70 °F 69.4 °F 29.92 in Calm     98% 0 in meteobridge W/m2
22:04 70 °F 69.4 °F 29.92 in Calm     98% 0 in meteobridge W/m2
22:09 70 °F 69.4 °F 29.92 in Calm     98% 0 in meteobridge W/m2
22:14 70 °F 69.4 °F 29.93 in Calm     98% 0 in meteobridge W/m2
22:19 69.8 °F 69.3 °F 29.93 in Calm     98% 0 in meteobridge W/m2
22:24 70 °F 69.4 °F 29.93 in Calm     98% 0 in meteobridge W/m2
22:29 70 °F 69.4 °F 29.93 in Calm     98% 0 in meteobridge W/m2
22:34 70 °F 69.4 °F 29.94 in Calm     98% 0 in meteobridge W/m2
22:39 70 °F 69.4 °F 29.93 in Calm     98% 0 in meteobridge W/m2
22:44 70.2 °F 69.6 °F 29.93 in Calm     98% 0 in meteobridge W/m2
22:49 70 °F 69.4 °F 29.92 in Calm     98% 0 in meteobridge W/m2
22:54 70 °F 69.4 °F 29.93 in Calm     98% 0 in meteobridge W/m2
22:59 70 °F 69.4 °F 29.93 in Calm     98% 0 in meteobridge W/m2
23:04 70 °F 69.4 °F 29.93 in Calm     98% 0 in meteobridge W/m2
23:09 70 °F 69.4 °F 29.93 in Calm     98% 0 in meteobridge W/m2
23:14 70 °F 69.4 °F 29.94 in Calm     98% 0 in meteobridge W/m2
23:19 70.2 °F 69.6 °F 29.94 in Calm     98% 0 in meteobridge W/m2
23:24 70.2 °F 69.6 °F 29.93 in Calm     98% 0 in meteobridge W/m2
23:29 70.2 °F 69.8 °F 29.93 in Calm     99% 0 in meteobridge W/m2
23:34 70.3 °F 70 °F 29.93 in Calm     99% 0 in meteobridge W/m2
23:39 70.3 °F 70 °F 29.93 in Calm     99% 0 in meteobridge W/m2
23:44 70.3 °F 70 °F 29.93 in Calm     99% 0 in meteobridge W/m2
23:49 70.3 °F 70 °F 29.93 in Calm     99% 0 in meteobridge W/m2
23:54 70.3 °F 70 °F 29.92 in Calm     99% 0 in meteobridge W/m2
23:59 70.3 °F 70 °F 29.92 in Calm     99% 0 in meteobridge W/m2
EllijayWeather
Compliments of Weather Underground - 2.5 mb